createdAt,value
2018-01-08T00:02:03.260Z,26.70
2018-01-08T00:04:30.750Z,24.67
2018-01-08T00:06:58.254Z,23.83
2018-01-08T00:09:25.767Z,28.97
2018-01-08T00:11:53.670Z,23.67
2018-01-08T00:14:21.573Z,26.00
2018-01-08T00:16:49.093Z,28.20
2018-01-08T00:19:17.000Z,23.27
2018-01-08T00:21:45.274Z,26.20
2018-01-08T00:24:13.176Z,28.13
2018-01-08T00:26:40.674Z,27.77
2018-01-08T00:29:08.591Z,26.57
2018-01-08T00:31:36.314Z,29.67
2018-01-08T00:34:03.847Z,31.27
2018-01-08T00:36:31.743Z,25.13
2018-01-08T00:38:59.692Z,31.23
2018-01-08T00:41:27.335Z,27.97
2018-01-08T00:43:55.414Z,27.10
2018-01-08T00:46:22.922Z,33.00
2018-01-08T00:48:50.515Z,27.93
2018-01-08T00:51:18.411Z,25.33
2018-01-08T00:53:45.914Z,25.27
2018-01-08T00:56:14.207Z,32.00
2018-01-08T00:58:42.114Z,26.57
2018-01-08T01:01:10.202Z,31.60
2018-01-08T01:03:37.913Z,33.27
2018-01-08T01:06:05.947Z,29.50
2018-01-08T01:08:33.630Z,27.63
2018-01-08T01:11:01.130Z,29.93
2018-01-08T01:13:29.167Z,35.10
2018-01-08T01:15:57.081Z,32.80
2018-01-08T01:18:25.299Z,33.27
2018-01-08T01:20:52.798Z,33.27
2018-01-08T01:23:20.290Z,27.97
2018-01-08T01:25:48.186Z,30.70
2018-01-08T01:28:16.746Z,27.73
2018-01-08T01:30:44.636Z,38.40
2018-01-08T01:33:12.564Z,35.80
2018-01-08T01:35:40.126Z,32.30
2018-01-08T01:38:07.734Z,36.50
2018-01-08T01:40:35.686Z,38.67
2018-01-08T01:43:03.733Z,31.43
2018-01-08T01:45:31.232Z,30.30
2018-01-08T01:47:58.741Z,35.70
2018-01-08T01:50:26.234Z,36.63
2018-01-08T01:52:53.754Z,36.87
2018-01-08T01:55:21.646Z,40.33
2018-01-08T01:57:49.155Z,37.57
2018-01-08T02:00:16.706Z,35.37
2018-01-08T02:02:44.218Z,38.97
2018-01-08T02:05:12.118Z,37.10
2018-01-08T02:07:40.759Z,38.17
2018-01-08T02:10:09.032Z,41.07
2018-01-08T02:12:36.534Z,35.63
2018-01-08T02:15:04.052Z,36.03
2018-01-08T02:17:31.954Z,36.47
2018-01-08T02:19:59.854Z,36.17
2018-01-08T02:22:27.358Z,34.57
2018-01-08T02:24:56.012Z,42.07
2018-01-08T02:27:23.502Z,30.17
2018-01-08T02:29:51.399Z,34.57
2018-01-08T02:32:18.951Z,33.20
2018-01-08T02:34:47.602Z,34.03
2018-01-08T02:37:15.720Z,30.57
2018-01-08T02:39:43.983Z,41.83
2018-01-08T02:42:11.744Z,35.27
2018-01-08T02:44:39.282Z,37.63
2018-01-08T02:47:07.191Z,38.27
2018-01-08T02:49:34.707Z,38.27
2018-01-08T02:52:02.619Z,31.33
2018-01-08T02:54:30.895Z,31.33
2018-01-08T02:56:58.391Z,37.07
2018-01-08T02:59:25.914Z,33.57
2018-01-08T03:01:53.407Z,33.73
2018-01-08T03:04:20.910Z,30.80
2018-01-08T03:06:48.806Z,38.00
2018-01-08T03:09:16.314Z,35.83
2018-01-08T03:11:44.255Z,39.40
2018-01-08T03:14:13.235Z,33.50
2018-01-08T03:16:40.742Z,36.23
2018-01-08T03:19:08.256Z,37.00
2018-01-08T03:21:36.155Z,31.07
2018-01-08T03:24:04.431Z,36.30
2018-01-08T03:26:33.268Z,35.20
2018-01-08T03:29:01.158Z,31.50
2018-01-08T03:31:29.084Z,33.80
2018-01-08T03:33:56.987Z,33.13
2018-01-08T03:36:24.503Z,31.63
2018-01-08T03:38:52.396Z,36.57
2018-01-08T03:41:20.675Z,32.27
2018-01-08T03:43:48.574Z,33.27
2018-01-08T03:46:16.470Z,32.50
2018-01-08T03:48:43.965Z,32.43
2018-01-08T03:51:11.992Z,31.10
2018-01-08T03:53:39.494Z,32.03
2018-01-08T03:56:07.025Z,30.43
2018-01-08T03:58:34.548Z,31.60
2018-01-08T04:01:02.438Z,29.87
2018-01-08T04:03:29.970Z,31.07
2018-01-08T04:05:57.861Z,29.83
2018-01-08T04:08:25.358Z,30.73
2018-01-08T04:10:52.848Z,37.07
2018-01-08T04:13:20.742Z,27.83
2018-01-08T04:15:48.246Z,36.30
2018-01-08T04:18:15.760Z,30.93
2018-01-08T04:20:43.716Z,34.67
2018-01-08T04:23:11.227Z,29.93
2018-01-08T04:25:39.502Z,29.43
2018-01-08T04:28:07.778Z,28.57
2018-01-08T04:30:35.686Z,30.10
2018-01-08T04:33:03.183Z,30.70
2018-01-08T04:35:31.490Z,26.67
2018-01-08T04:37:59.423Z,29.57
2018-01-08T04:40:27.321Z,24.60
2018-01-08T04:42:54.812Z,30.10
2018-01-08T04:45:22.314Z,26.47
2018-01-08T04:47:50.214Z,35.77
2018-01-08T04:50:17.758Z,32.10
2018-01-08T04:52:45.653Z,27.47
2018-01-08T04:55:13.161Z,32.80
2018-01-08T04:57:41.062Z,26.27
2018-01-08T05:00:08.583Z,30.97
2018-01-08T05:02:36.489Z,31.33
2018-01-08T05:05:04.767Z,31.67
2018-01-08T05:07:32.309Z,26.80
2018-01-08T05:09:59.811Z,29.23
2018-01-08T05:12:27.312Z,28.50
2018-01-08T05:14:55.577Z,28.93
2018-01-08T05:17:23.081Z,27.43
2018-01-08T05:19:50.593Z,30.17
2018-01-08T05:22:18.094Z,33.30
2018-01-08T05:24:45.609Z,28.77
2018-01-08T05:27:13.903Z,28.97
2018-01-08T05:29:41.651Z,33.90
2018-01-08T05:32:09.154Z,28.03
2018-01-08T05:34:36.650Z,27.80
2018-01-08T05:37:05.081Z,30.57
2018-01-08T05:39:33.464Z,28.93
2018-01-08T05:42:01.738Z,29.20
2018-01-08T05:44:29.234Z,33.07
2018-01-08T05:46:56.727Z,28.57
2018-01-08T05:49:24.634Z,31.70
2018-01-08T05:51:53.290Z,28.07
2018-01-08T05:54:21.973Z,30.80
2018-01-08T05:56:50.833Z,34.57
2018-01-08T05:59:18.770Z,33.90
2018-01-08T06:01:47.436Z,27.73
2018-01-08T06:04:14.946Z,30.83
2018-01-08T06:06:42.870Z,31.30
2018-01-08T06:09:10.374Z,32.73
2018-01-08T06:11:37.911Z,33.43
2018-01-08T06:14:05.820Z,34.27
2018-01-08T06:16:33.728Z,31.43
2018-01-08T06:19:01.658Z,30.53
2018-01-08T06:21:29.165Z,31.80
2018-01-08T06:23:57.426Z,31.03
2018-01-08T06:26:24.923Z,36.20
2018-01-08T06:28:53.199Z,31.93
2018-01-08T06:31:20.726Z,28.93
2018-01-08T06:33:48.627Z,26.60
2018-01-08T06:36:16.526Z,28.93
2018-01-08T06:38:44.033Z,30.43
2018-01-08T06:41:11.547Z,23.40
2018-01-08T06:43:39.070Z,27.23
2018-01-08T06:46:06.570Z,29.60
2018-01-08T06:48:34.877Z,34.17
2018-01-08T06:51:02.800Z,26.23
2018-01-08T06:53:30.702Z,27.93
2018-01-08T06:55:58.706Z,34.57
2018-01-08T06:58:26.318Z,32.77
2018-01-08T07:00:54.433Z,29.83
2018-01-08T07:03:21.937Z,27.73
2018-01-08T07:05:49.440Z,32.80
2018-01-08T07:08:16.951Z,28.20
2018-01-08T07:10:44.473Z,36.00
2018-01-08T07:13:12.523Z,28.33
2018-01-08T07:15:40.560Z,33.07
2018-01-08T07:18:08.448Z,34.27
2018-01-08T07:20:35.987Z,30.20
2018-01-08T07:23:03.891Z,27.53
2018-01-08T07:25:31.397Z,29.13
2018-01-08T07:27:59.289Z,32.17
2018-01-08T07:30:26.799Z,29.60
2018-01-08T07:32:54.686Z,31.27
2018-01-08T07:35:22.601Z,30.60
2018-01-08T07:37:50.952Z,25.53
2018-01-08T07:40:18.610Z,27.00
2018-01-08T07:42:46.110Z,27.60
2018-01-08T07:45:14.007Z,28.27
2018-01-08T07:47:41.916Z,29.83
2018-01-08T07:50:10.585Z,30.33
2018-01-08T07:52:38.879Z,25.13
2018-01-08T07:55:06.774Z,28.47
2018-01-08T07:57:34.302Z,25.83
2018-01-08T08:00:02.203Z,25.10
2018-01-08T08:02:30.126Z,23.83
2018-01-08T08:04:57.632Z,24.03
2018-01-08T08:07:25.905Z,27.63
2018-01-08T08:09:53.399Z,27.70
2018-01-08T08:12:22.047Z,21.83
2018-01-08T08:14:49.938Z,28.27
2018-01-08T08:17:18.935Z,30.67
2018-01-08T08:19:46.888Z,26.07
2018-01-08T08:22:14.392Z,37.53
2018-01-08T08:24:41.912Z,27.33
2018-01-08T08:27:09.410Z,32.63
2018-01-08T08:29:37.324Z,34.30
2018-01-08T08:32:04.843Z,27.33
2018-01-08T08:34:33.130Z,32.57
2018-01-08T08:37:00.646Z,29.77
2018-01-08T08:39:28.169Z,28.80
2018-01-08T08:41:56.448Z,29.37
2018-01-08T08:44:23.961Z,24.57
2018-01-08T08:46:51.462Z,23.67
2018-01-08T08:49:18.963Z,24.90
2018-01-08T08:51:46.459Z,30.67
2018-01-08T08:54:14.354Z,25.27
2018-01-08T08:56:43.198Z,24.93
2018-01-08T08:59:11.831Z,27.37
2018-01-08T09:01:39.747Z,20.43
2018-01-08T09:04:07.650Z,24.77
2018-01-08T09:06:35.554Z,19.17
2018-01-08T09:09:03.453Z,28.77
2018-01-08T09:11:30.978Z,19.93
2018-01-08T09:13:58.492Z,23.00
2018-01-08T09:16:26.400Z,25.40
2018-01-08T09:18:53.910Z,18.40
2018-01-08T09:21:21.422Z,21.00
2018-01-08T09:23:48.915Z,20.13
2018-01-08T09:26:16.815Z,19.07
2018-01-08T09:28:44.715Z,24.47
2018-01-08T09:31:12.988Z,19.43
2018-01-08T09:33:42.105Z,21.27
2018-01-08T09:36:10.040Z,21.57
2018-01-08T09:38:37.966Z,15.63
2018-01-08T09:41:05.867Z,23.70
2018-01-08T09:43:34.150Z,19.60
2018-01-08T09:46:01.658Z,17.97
2018-01-08T09:48:29.191Z,22.40
2018-01-08T09:50:56.701Z,17.57
2018-01-08T09:53:24.198Z,21.80
2018-01-08T09:55:52.103Z,17.37
2018-01-08T09:58:20.005Z,20.37
2018-01-08T10:00:47.520Z,21.87
2018-01-08T10:03:27.550Z,21.03
2018-01-08T10:06:06.858Z,18.90
2018-01-08T10:08:46.086Z,19.10
2018-01-08T10:11:25.790Z,21.13
2018-01-08T10:14:05.087Z,16.93
2018-01-08T10:16:44.875Z,18.13
2018-01-08T10:19:24.866Z,19.17
2018-01-08T10:21:52.382Z,18.23
2018-01-08T10:24:19.890Z,23.80
2018-01-08T10:26:47.815Z,21.67
2018-01-08T10:29:15.715Z,20.33
2018-01-08T10:31:43.209Z,23.27
2018-01-08T10:34:12.058Z,19.97
2018-01-08T10:36:40.320Z,20.53
2018-01-08T10:39:08.210Z,20.00
2018-01-08T10:41:41.803Z,19.60
2018-01-08T10:44:15.450Z,17.20
2018-01-08T10:46:48.634Z,20.77
2018-01-08T10:49:21.719Z,21.13
2018-01-08T10:51:48.731Z,27.20
2018-01-08T10:54:17.391Z,16.03
2018-01-08T10:56:45.664Z,17.00
2018-01-08T10:59:13.940Z,19.60
2018-01-08T11:01:47.235Z,18.27
2018-01-08T11:04:15.131Z,18.90
2018-01-08T11:06:43.423Z,17.70
2018-01-08T11:09:10.934Z,22.90
2018-01-08T11:11:38.436Z,20.67
2018-01-08T11:14:05.968Z,18.77
2018-01-08T11:16:33.481Z,23.97
2018-01-08T11:19:01.403Z,18.63
2018-01-08T11:21:29.398Z,22.00
2018-01-08T11:23:57.292Z,16.97
2018-01-08T11:26:25.187Z,17.47
2018-01-08T11:28:52.687Z,20.90
2018-01-08T11:31:20.582Z,19.30
2018-01-08T11:33:48.483Z,19.63
2018-01-08T11:36:16.011Z,16.37
2018-01-08T11:38:43.506Z,14.00
2018-01-08T11:41:11.410Z,19.10
2018-01-08T11:43:39.411Z,18.77
2018-01-08T11:46:06.930Z,25.33
2018-01-08T11:48:34.884Z,16.63
2018-01-08T11:51:02.355Z,16.70
2018-01-08T11:53:29.850Z,22.07
2018-01-08T11:55:57.759Z,16.23
2018-01-08T11:58:25.658Z,13.87
2018-01-08T12:00:53.558Z,13.73
2018-01-08T12:03:21.089Z,22.50
2018-01-08T12:05:48.986Z,18.20
2018-01-08T12:08:16.511Z,15.37
2018-01-08T12:10:44.007Z,14.70
2018-01-08T12:13:11.530Z,20.90
2018-01-08T12:15:39.418Z,13.80
2018-01-08T12:18:07.335Z,24.50
2018-01-08T12:20:34.906Z,16.33
2018-01-08T12:23:02.403Z,14.73
2018-01-08T12:25:30.308Z,22.17
2018-01-08T12:27:57.861Z,15.87
2018-01-08T12:30:25.771Z,14.63
2018-01-08T12:32:53.283Z,20.80
2018-01-08T12:35:21.239Z,10.83
2018-01-08T12:37:49.503Z,15.00
2018-01-08T12:40:17.031Z,22.10
2018-01-08T12:42:44.926Z,16.07
2018-01-08T12:45:12.925Z,16.10
2018-01-08T12:47:40.432Z,12.40
2018-01-08T12:50:07.941Z,15.47
2018-01-08T12:52:35.438Z,15.40
2018-01-08T12:55:04.062Z,14.73
2018-01-08T12:57:31.958Z,13.50
2018-01-08T13:00:00.247Z,18.80
2018-01-08T13:02:28.142Z,13.87
2018-01-08T13:04:55.634Z,18.63
2018-01-08T13:07:23.130Z,14.13
2018-01-08T13:09:51.407Z,12.90
2018-01-08T13:12:18.965Z,19.03
2018-01-08T13:14:46.446Z,16.17
2018-01-08T13:17:13.974Z,9.20
2018-01-08T13:19:41.907Z,13.17
2018-01-08T13:22:09.851Z,12.97
2018-01-08T13:24:38.128Z,15.07
2018-01-08T13:27:05.622Z,13.03
2018-01-08T13:29:33.127Z,14.97
2018-01-08T13:32:01.015Z,13.67
2018-01-08T13:34:28.528Z,14.57
2018-01-08T13:36:56.434Z,15.43
2018-01-08T13:39:23.923Z,12.07
2018-01-08T13:41:51.840Z,15.93
2018-01-08T13:44:19.755Z,10.80
2018-01-08T13:46:47.646Z,14.43
2018-01-08T13:49:15.573Z,13.90
2018-01-08T13:51:43.854Z,12.30
2018-01-08T13:54:11.373Z,13.00
2018-01-08T13:56:39.279Z,12.63
2018-01-08T13:59:06.803Z,14.00
2018-01-08T14:01:34.303Z,14.13
2018-01-08T14:04:02.607Z,13.83
2018-01-08T14:06:30.497Z,14.63
2018-01-08T14:08:58.388Z,12.00
2018-01-08T14:11:25.893Z,10.73
2018-01-08T14:13:53.398Z,14.90
2018-01-08T14:16:20.903Z,11.27
2018-01-08T14:18:48.804Z,12.87
2018-01-08T14:21:17.082Z,12.60
2018-01-08T14:23:45.015Z,13.93
2018-01-08T14:26:12.538Z,13.57
2018-01-08T14:28:40.802Z,11.83
2018-01-08T14:31:08.719Z,14.23
2018-01-08T14:33:36.227Z,15.60
2018-01-08T14:36:04.158Z,13.30
2018-01-08T14:38:31.653Z,16.73
2018-01-08T14:40:59.173Z,7.40
2018-01-08T14:43:26.686Z,11.43
2018-01-08T14:45:54.186Z,12.20
2018-01-08T14:48:22.093Z,11.33
2018-01-08T14:50:50.343Z,8.87
2018-01-08T14:53:18.749Z,9.93
2018-01-08T14:55:47.027Z,11.50
2018-01-08T14:58:14.583Z,11.27
2018-01-08T15:00:42.859Z,11.80
2018-01-08T15:03:11.145Z,10.30
2018-01-08T15:05:39.407Z,10.40
2018-01-08T15:08:06.931Z,11.70
2018-01-08T15:10:35.770Z,11.40
2018-01-08T15:13:03.671Z,10.53
2018-01-08T15:15:32.680Z,7.87
2018-01-08T15:18:00.566Z,10.07
2018-01-08T15:20:28.462Z,6.77
2018-01-08T15:22:55.970Z,11.33
2018-01-08T15:25:23.890Z,13.97
2018-01-08T15:27:51.786Z,11.83
2018-01-08T15:30:19.712Z,10.97
2018-01-08T15:32:47.607Z,12.87
2018-01-08T15:35:15.653Z,8.30
2018-01-08T15:37:43.573Z,9.90
2018-01-08T15:40:11.130Z,11.43
2018-01-08T15:42:38.634Z,9.80
2018-01-08T15:45:06.165Z,10.30
2018-01-08T15:47:34.063Z,8.80
2018-01-08T15:50:02.935Z,11.07
2018-01-08T15:52:30.446Z,11.27
2018-01-08T15:54:57.979Z,6.93
2018-01-08T15:57:25.878Z,10.80
2018-01-08T15:59:53.804Z,12.13
2018-01-08T16:02:21.686Z,10.83
2018-01-08T16:04:49.198Z,9.47
2018-01-08T16:07:16.702Z,11.93
2018-01-08T16:09:44.599Z,9.53
2018-01-08T16:12:12.510Z,10.90
2018-01-08T16:14:41.154Z,6.43
2018-01-08T16:17:09.063Z,10.07
2018-01-08T16:19:36.947Z,8.53
2018-01-08T16:22:04.853Z,12.10
2018-01-08T16:24:32.342Z,11.07
2018-01-08T16:26:59.902Z,9.00
2018-01-08T16:29:28.890Z,10.37
2018-01-08T16:31:57.917Z,13.27
2018-01-08T16:34:25.807Z,7.63
2018-01-08T16:36:53.322Z,9.10
2018-01-08T16:39:21.197Z,9.47
2018-01-08T16:41:48.711Z,8.63
2018-01-08T16:44:16.599Z,8.47
2018-01-08T16:46:45.265Z,11.37
2018-01-08T16:49:13.559Z,14.37
2018-01-08T16:51:41.116Z,13.53
2018-01-08T16:54:08.756Z,11.13
2018-01-08T16:56:36.245Z,12.60
2018-01-08T16:59:03.813Z,16.23
2018-01-08T17:01:31.306Z,13.23
2018-01-08T17:03:59.583Z,14.60
2018-01-08T17:06:27.102Z,12.80
2018-01-08T17:08:55.035Z,11.63
2018-01-08T17:11:22.934Z,10.23
2018-01-08T17:13:50.463Z,12.50
2018-01-08T17:16:17.997Z,11.67
2018-01-08T17:18:45.930Z,12.60
2018-01-08T17:21:13.423Z,13.63
2018-01-08T17:23:40.927Z,13.20
2018-01-08T17:26:08.849Z,11.63
2018-01-08T17:28:36.406Z,12.90
2018-01-08T17:31:04.360Z,16.27
2018-01-08T17:33:32.673Z,12.33
2018-01-08T17:36:00.203Z,11.87
2018-01-08T17:38:27.694Z,14.00
2018-01-08T17:40:55.649Z,13.40
2018-01-08T17:43:23.539Z,12.57
2018-01-08T17:45:51.100Z,12.67
2018-01-08T17:48:18.596Z,16.30
2018-01-08T17:50:46.507Z,14.27
2018-01-08T17:53:14.012Z,11.67
2018-01-08T17:55:41.973Z,14.07
2018-01-08T17:58:09.948Z,17.77
2018-01-08T18:00:37.848Z,13.63
2018-01-08T18:03:05.783Z,16.40
2018-01-08T18:05:33.353Z,16.27
2018-01-08T18:08:01.241Z,14.87
2018-01-08T18:10:28.739Z,17.40
2018-01-08T18:12:56.636Z,16.13
2018-01-08T18:15:24.526Z,14.73
2018-01-08T18:17:52.101Z,18.80
2018-01-08T18:20:20.005Z,11.77
2018-01-08T18:22:48.694Z,19.10
2018-01-08T18:25:16.626Z,14.43
2018-01-08T18:27:44.911Z,16.70
2018-01-08T18:30:13.132Z,15.60
2018-01-08T18:32:41.106Z,15.97
2018-01-08T18:35:08.678Z,17.13
2018-01-08T18:37:36.652Z,17.70
2018-01-08T18:40:04.558Z,14.90
2018-01-08T18:42:33.267Z,20.10
2018-01-08T18:45:01.202Z,22.50
2018-01-08T18:47:28.735Z,16.53
2018-01-08T18:49:56.670Z,18.27
2018-01-08T18:52:24.213Z,19.27
2018-01-08T18:54:52.175Z,17.10
2018-01-08T18:57:20.134Z,20.87
2018-01-08T18:59:48.055Z,17.60
2018-01-08T19:02:15.998Z,17.77
2018-01-08T19:04:44.679Z,18.53
2018-01-08T19:07:12.621Z,16.17
2018-01-08T19:09:40.248Z,17.43
2018-01-08T19:12:08.523Z,20.90
2018-01-08T19:14:36.440Z,19.17
2018-01-08T19:17:04.410Z,16.50
2018-01-08T19:19:32.359Z,18.13
2018-01-08T19:21:59.923Z,19.03
2018-01-08T19:24:27.442Z,18.13
2018-01-08T19:26:55.013Z,17.13
2018-01-08T19:29:22.609Z,18.40
2018-01-08T19:31:50.591Z,28.83
2018-01-08T19:34:18.531Z,18.53
2018-01-08T19:36:46.534Z,16.23
2018-01-08T19:39:14.201Z,14.87
2018-01-08T19:41:42.165Z,14.10
2018-01-08T19:44:09.725Z,17.73
2018-01-08T19:46:38.066Z,17.33
2018-01-08T19:49:06.022Z,15.50
2018-01-08T19:51:33.965Z,19.47
